Time;durP1;ratioP1;P1;durP2;ratioP2;P2;SDS_P1;SDS_P2;PMS_P1;PMS_P2;Temp;Humidity;BMP_temperature;BMP_pressure;BME280_temperature;BME280_humidity;BME280_pressure;Samples;Min_cycle;Max_cycle;Signal;HPM_P1;HPM_P2
2022/03/25 00:01:29;;;;;;;148.07;65.47;;;4.60;99.90;;;;;;5030440;28;20038;-77
2022/03/25 00:03:57;;;;;;;140.20;65.28;;;4.60;99.90;;;;;;5027448;28;20148;-77
2022/03/25 00:06:23;;;;;;;141.35;62.70;;;4.60;99.90;;;;;;5030561;28;20039;-77
2022/03/25 00:08:49;;;;;;;141.10;64.50;;;4.50;99.90;;;;;;5027859;28;20037;-77
2022/03/25 00:11:15;;;;;;;151.10;67.53;;;4.50;99.90;;;;;;5034727;28;20037;-77
2022/03/25 00:13:41;;;;;;;134.15;63.25;;;4.40;99.90;;;;;;5029242;28;20029;-77
2022/03/25 00:16:07;;;;;;;129.77;62.13;;;4.40;99.90;;;;;;5031267;28;20403;-76
2022/03/25 00:18:34;;;;;;;125.72;60.97;;;4.40;99.90;;;;;;5029231;28;20030;-77
2022/03/25 00:20:59;;;;;;;122.85;59.65;;;4.50;99.90;;;;;;5030436;28;20483;-77
2022/03/25 00:23:25;;;;;;;127.32;61.97;;;4.40;99.90;;;;;;5023548;28;20095;-77
2022/03/25 00:25:51;;;;;;;122.88;59.10;;;4.40;99.90;;;;;;5027624;28;20458;-77
2022/03/25 00:28:17;;;;;;;124.75;58.97;;;4.40;99.90;;;;;;5026698;28;20041;-77
2022/03/25 00:30:43;;;;;;;123.53;57.97;;;4.30;99.90;;;;;;5024853;28;20111;-78
2022/03/25 00:33:09;;;;;;;120.80;59.08;;;4.30;99.90;;;;;;5026357;28;20047;-77
2022/03/25 00:35:35;;;;;;;122.30;58.42;;;4.30;99.90;;;;;;5025810;28;20642;-77
2022/03/25 00:38:01;;;;;;;125.55;58.78;;;4.30;99.90;;;;;;5024399;28;20084;-77
2022/03/25 00:40:27;;;;;;;119.85;56.08;;;4.20;99.90;;;;;;5030086;28;20445;-78
2022/03/25 00:42:53;;;;;;;125.30;59.22;;;4.10;99.90;;;;;;5029082;28;20026;-77
2022/03/25 00:45:19;;;;;;;130.60;59.03;;;4.10;99.90;;;;;;5026908;28;20091;-78
2022/03/25 00:47:44;;;;;;;128.90;59.50;;;4.10;99.90;;;;;;5027778;28;20068;-78
2022/03/25 00:50:11;;;;;;;123.93;58.20;;;4.10;99.90;;;;;;5031173;28;20049;-77
2022/03/25 00:52:37;;;;;;;130.27;60.10;;;4.10;99.90;;;;;;5029495;28;20048;-77
2022/03/25 00:55:05;;;;;;;134.93;63.15;;;4.00;99.90;;;;;;5027220;28;20052;-77
2022/03/25 00:57:31;;;;;;;140.18;63.67;;;4.10;99.90;;;;;;5027487;28;20042;-77
2022/03/25 00:59:57;;;;;;;144.88;64.68;;;4.10;99.90;;;;;;5029674;28;20029;-77
2022/03/25 01:02:23;;;;;;;131.05;62.10;;;4.10;99.90;;;;;;5028394;28;20037;-77
2022/03/25 01:04:49;;;;;;;122.72;59.55;;;4.00;99.90;;;;;;5028313;28;20041;-77
2022/03/25 01:07:15;;;;;;;119.45;57.80;;;3.90;99.90;;;;;;5029242;28;20033;-77
2022/03/25 01:09:41;;;;;;;109.38;54.20;;;3.90;99.90;;;;;;5010745;28;20123;-77
2022/03/25 01:12:08;;;;;;;99.10;53.50;;;3.80;99.90;;;;;;5032748;28;20038;-77
2022/03/25 01:14:34;;;;;;;110.57;52.80;;;3.70;99.90;;;;;;5030709;28;20095;-77
2022/03/25 01:17:00;;;;;;;121.47;52.67;;;3.60;99.90;;;;;;5033516;28;20495;-77
2022/03/25 01:19:27;;;;;;;119.75;55.25;;;3.50;99.90;;;;;;5032988;28;20073;-77
2022/03/25 01:21:54;;;;;;;119.25;54.10;;;3.50;99.90;;;;;;5031818;28;20076;-77
2022/03/25 01:24:20;;;;;;;116.55;51.60;;;3.40;99.90;;;;;;5032418;28;20049;-77
2022/03/25 01:26:46;;;;;;;125.65;53.90;;;3.40;99.90;;;;;;5031948;28;20033;-77
2022/03/25 01:29:12;;;;;;;131.70;53.22;;;3.40;99.90;;;;;;5032386;28;20037;-77
2022/03/25 01:31:39;;;;;;;132.43;51.75;;;3.30;99.90;;;;;;5033457;28;20025;-77
2022/03/25 01:34:05;;;;;;;206.15;56.78;;;3.20;99.90;;;;;;5031355;28;20116;-77
2022/03/25 01:36:31;;;;;;;176.43;53.72;;;3.20;99.90;;;;;;5033364;28;20057;-77
2022/03/25 01:38:58;;;;;;;217.85;58.63;;;3.20;99.90;;;;;;5030112;28;20041;-77
2022/03/25 01:41:24;;;;;;;515.63;104.22;;;3.20;99.90;;;;;;5032150;28;20045;-77
2022/03/25 01:43:59;;;;;;;304.00;63.50;;;3.10;99.90;;;;;;5029982;28;20167;-77
2022/03/25 01:46:26;;;;;;;475.90;78.85;;;2.20;99.90;;;;;;5029102;28;20033;-77
2022/03/25 01:48:53;;;;;;;396.48;68.22;;;3.00;99.90;;;;;;5031605;28;20498;-77
2022/03/25 01:51:25;;;;;;;217.15;55.70;;;3.00;99.90;;;;;;5031830;28;20045;-77
2022/03/25 01:53:50;;;;;;;435.40;81.40;;;3.00;99.90;;;;;;5063576;28;20486;-77
2022/03/25 01:56:22;;;;;;;406.50;75.88;;;3.00;99.90;;;;;;5031370;28;20175;-77
2022/03/25 01:58:48;;;;;;;309.73;62.38;;;3.00;99.90;;;;;;5032279;28;20050;-77
2022/03/25 02:01:15;;;;;;;396.95;76.40;;;3.00;99.90;;;;;;5030519;28;20037;-77
2022/03/25 02:03:41;;;;;;;432.02;69.28;;;3.00;99.90;;;;;;5033620;28;20160;-77
2022/03/25 02:06:07;;;;;;;423.55;67.47;;;3.00;99.90;;;;;;5031826;28;20045;-77
2022/03/25 02:08:33;;;;;;;541.30;84.82;;;3.00;99.90;;;;;;5031112;28;20049;-77
2022/03/25 02:10:59;;;;;;;712.80;98.22;;;3.00;99.90;;;;;;5033759;28;20108;-77
2022/03/25 02:13:25;;;;;;;400.13;73.75;;;2.90;99.90;;;;;;5033858;28;20117;-77
2022/03/25 02:15:52;;;;;;;502.70;84.72;;;2.90;99.90;;;;;;5029643;28;20120;-77
2022/03/25 02:18:18;;;;;;;558.05;87.55;;;2.90;99.90;;;;;;5031559;28;20352;-77
2022/03/25 02:20:46;;;;;;;461.17;80.15;;;2.90;99.90;;;;;;5032429;28;20129;-77
2022/03/25 02:23:12;;;;;;;552.80;96.35;;;3.00;99.90;;;;;;5031079;28;20041;-77
2022/03/25 02:25:40;;;;;;;468.65;78.32;;;3.00;99.90;;;;;;5029101;28;20034;-77
2022/03/25 02:28:06;;;;;;;383.25;76.60;;;2.80;99.90;;;;;;5029664;28;20049;-77
2022/03/25 02:30:33;;;;;;;528.42;91.63;;;2.80;99.90;;;;;;5030658;28;20039;-77
2022/03/25 02:33:01;;;;;;;563.78;90.97;;;2.80;99.90;;;;;;5029122;28;20060;-77
2022/03/25 02:35:40;;;;;;;379.38;77.15;;;2.80;99.90;;;;;;5031162;28;20414;-77
2022/03/25 02:38:08;;;;;;;484.40;91.47;;;2.80;99.90;;;;;;5033159;28;20080;-78
2022/03/25 02:40:34;;;;;;;495.05;93.40;;;3.00;99.90;;;;;;5027917;28;20036;-77
2022/03/25 02:43:00;;;;;;;516.85;88.07;;;3.00;99.90;;;;;;5034242;28;20029;-77
2022/03/25 02:45:25;;;;;;;381.95;67.60;;;2.90;99.90;;;;;;5027025;28;20668;-77
2022/03/25 02:47:51;;;;;;;551.50;80.57;;;2.90;99.90;;;;;;5030489;28;20098;-77
2022/03/25 02:50:17;;;;;;;667.13;95.43;;;2.90;99.90;;;;;;5028562;28;20045;-77
2022/03/25 02:52:43;;;;;;;514.97;67.50;;;2.90;99.90;;;;;;5030142;28;20057;-77
2022/03/25 02:55:09;;;;;;;717.65;98.57;;;2.80;99.90;;;;;;5030108;28;20064;-77
2022/03/25 02:57:35;;;;;;;656.60;95.25;;;2.90;99.90;;;;;;5028130;28;20082;-77
2022/03/25 03:00:09;;;;;;;620.20;89.30;;;2.80;99.90;;;;;;5013189;28;20495;-77
2022/03/25 03:02:36;;;;;;;452.67;69.15;;;2.80;99.90;;;;;;5031694;28;20033;-77
2022/03/25 03:05:05;;;;;;;501.00;69.43;;;2.80;99.90;;;;;;5027895;28;20041;-77
2022/03/25 03:07:30;;;;;;;561.78;91.70;;;2.80;99.90;;;;;;5028344;28;20044;-77
2022/03/25 03:09:56;;;;;;;559.58;74.93;;;2.70;99.90;;;;;;5028166;28;20402;-77
2022/03/25 03:12:22;;;;;;;513.40;67.70;;;2.70;99.90;;;;;;5029214;28;20507;-77
2022/03/25 03:14:48;;;;;;;586.97;80.07;;;2.60;99.90;;;;;;5027469;28;20556;-77
2022/03/25 03:17:15;;;;;;;558.72;79.75;;;2.50;99.90;;;;;;5027760;28;20145;-77
2022/03/25 03:19:40;;;;;;;496.73;74.20;;;2.50;99.90;;;;;;5028707;28;20029;-77
2022/03/25 03:22:06;;;;;;;465.23;66.97;;;2.40;99.90;;;;;;5028310;28;20495;-77
2022/03/25 03:24:32;;;;;;;582.00;94.32;;;2.40;99.90;;;;;;5029952;28;20509;-77
2022/03/25 03:26:58;;;;;;;461.52;75.25;;;2.40;99.90;;;;;;5028902;28;20033;-77
2022/03/25 03:29:25;;;;;;;513.42;68.22;;;2.40;99.90;;;;;;5028730;28;20087;-77
2022/03/25 03:31:51;;;;;;;524.35;74.75;;;2.30;99.90;;;;;;5028598;28;20402;-77
2022/03/25 03:34:17;;;;;;;566.63;88.18;;;2.30;99.90;;;;;;5028517;28;20051;-77
2022/03/25 03:36:42;;;;;;;500.15;81.35;;;2.20;99.90;;;;;;5026536;28;20065;-78
2022/03/25 03:39:08;;;;;;;483.08;65.13;;;2.30;99.90;;;;;;5027666;28;20077;-79
2022/03/25 03:41:34;;;;;;;409.60;62.42;;;2.20;99.90;;;;;;5028787;28;20044;-77
2022/03/25 03:44:00;;;;;;;538.85;72.18;;;2.30;99.90;;;;;;5025197;28;20630;-77
2022/03/25 03:46:26;;;;;;;660.97;104.10;;;2.20;99.90;;;;;;5023621;28;20332;-77
2022/03/25 03:48:51;;;;;;;513.03;75.22;;;2.20;99.90;;;;;;5025532;28;20073;-77
2022/03/25 03:51:17;;;;;;;415.80;60.65;;;2.30;99.90;;;;;;5024543;28;20119;-77
2022/03/25 03:53:43;;;;;;;707.05;99.88;;;2.10;99.90;;;;;;5020696;28;20040;-77
2022/03/25 03:56:09;;;;;;;661.95;113.13;;;2.10;99.90;;;;;;5025520;28;20037;-77
2022/03/25 03:58:34;;;;;;;381.48;65.00;;;2.00;99.90;;;;;;5025131;28;20491;-77
2022/03/25 04:01:00;;;;;;;416.80;67.60;;;2.00;99.90;;;;;;5025938;28;20041;-77
2022/03/25 04:03:26;;;;;;;557.47;105.07;;;2.10;99.90;;;;;;5028586;28;20091;-77
2022/03/25 04:05:52;;;;;;;480.13;75.63;;;2.00;99.90;;;;;;5027534;28;20048;-77
2022/03/25 04:08:18;;;;;;;570.45;97.72;;;2.00;99.90;;;;;;5027779;28;20037;-77
2022/03/25 04:10:44;;;;;;;439.15;70.15;;;2.00;99.90;;;;;;5028189;28;20124;-77
2022/03/25 04:13:09;;;;;;;581.50;86.38;;;2.00;99.90;;;;;;5028571;28;20034;-77
2022/03/25 04:15:35;;;;;;;474.20;76.32;;;2.00;99.90;;;;;;5027584;28;20486;-77
2022/03/25 04:18:01;;;;;;;701.00;123.32;;;2.30;99.90;;;;;;5025103;28;20056;-77
2022/03/25 04:20:27;;;;;;;490.55;73.75;;;1.90;99.90;;;;;;5027898;28;20045;-77
2022/03/25 04:22:53;;;;;;;376.23;57.10;;;1.90;99.90;;;;;;5023315;28;20499;-77
2022/03/25 04:25:19;;;;;;;349.63;56.45;;;1.90;99.90;;;;;;5028294;28;20040;-77
2022/03/25 04:27:49;;;;;;;735.08;107.43;;;1.80;99.90;;;;;;5028650;28;20529;-77
2022/03/25 04:30:19;;;;;;;354.27;63.13;;;1.80;99.90;;;;;;5026231;28;20128;-77
2022/03/25 04:32:45;;;;;;;389.98;59.55;;;1.80;99.90;;;;;;5028662;28;20037;-77
2022/03/25 04:35:11;;;;;;;458.80;70.50;;;1.80;99.90;;;;;;5026091;28;20061;-77
2022/03/25 04:37:37;;;;;;;358.55;56.20;;;1.70;99.90;;;;;;5025578;28;20046;-77
2022/03/25 04:40:03;;;;;;;509.30;73.65;;;1.70;99.90;;;;;;5026358;28;20046;-76
2022/03/25 04:42:29;;;;;;;367.25;59.95;;;1.60;99.90;;;;;;5028750;28;20041;-77
2022/03/25 04:44:55;;;;;;;359.58;54.92;;;1.60;99.90;;;;;;5027232;28;20450;-77
2022/03/25 04:47:21;;;;;;;376.50;63.45;;;1.60;99.90;;;;;;5032638;28;20542;-77
2022/03/25 04:49:47;;;;;;;536.53;92.60;;;1.50;99.90;;;;;;5031351;28;20069;-77
2022/03/25 04:52:13;;;;;;;239.65;51.83;;;1.50;99.90;;;;;;5033898;28;20475;-77
2022/03/25 04:54:39;;;;;;;343.70;61.53;;;1.50;99.90;;;;;;5031737;28;20107;-77
2022/03/25 04:57:05;;;;;;;553.85;89.40;;;1.50;99.90;;;;;;5031374;28;20467;-77
2022/03/25 04:59:30;;;;;;;471.80;67.22;;;2.10;99.90;;;;;;5031889;28;20124;-77
2022/03/25 05:01:56;;;;;;;533.17;83.47;;;1.50;99.90;;;;;;5030482;28;20060;-77
2022/03/25 05:04:22;;;;;;;521.33;80.78;;;1.50;99.90;;;;;;5028251;28;20073;-77
2022/03/25 05:06:48;;;;;;;508.38;71.97;;;1.50;99.90;;;;;;5032571;28;20154;-77
2022/03/25 05:09:13;;;;;;;567.30;94.97;;;1.40;99.90;;;;;;5034549;28;20072;-77
2022/03/25 05:11:40;;;;;;;454.05;65.65;;;1.40;99.90;;;;;;5034245;28;20044;-77
2022/03/25 05:14:05;;;;;;;657.80;113.97;;;1.40;99.90;;;;;;5034545;28;20392;-77
2022/03/25 05:16:31;;;;;;;606.42;110.68;;;1.60;99.90;;;;;;5031939;28;20888;-77
2022/03/25 05:18:57;;;;;;;412.90;65.80;;;1.50;99.90;;;;;;5031064;28;20425;-77
2022/03/25 05:21:23;;;;;;;469.25;68.40;;;1.40;99.90;;;;;;5033718;28;20048;-77
2022/03/25 05:23:48;;;;;;;486.70;77.13;;;1.30;99.90;;;;;;5015201;28;20116;-77
2022/03/25 05:26:14;;;;;;;433.30;70.78;;;1.30;99.90;;;;;;5032082;28;20049;-77
2022/03/25 05:28:40;;;;;;;530.53;95.20;;;1.30;99.90;;;;;;5030482;28;20048;-77
2022/03/25 05:31:05;;;;;;;504.48;79.32;;;1.30;99.90;;;;;;5031368;28;20039;-77
2022/03/25 05:33:31;;;;;;;468.63;69.95;;;1.30;99.90;;;;;;5029941;28;20037;-77
2022/03/25 05:35:57;;;;;;;508.08;87.90;;;1.20;99.90;;;;;;5030954;28;20072;-77
2022/03/25 05:38:23;;;;;;;391.48;61.88;;;1.20;99.90;;;;;;5031225;28;20115;-77
2022/03/25 05:40:49;;;;;;;404.30;61.42;;;1.10;99.90;;;;;;5032417;28;20485;-77
2022/03/25 05:43:15;;;;;;;407.45;62.55;;;1.10;99.90;;;;;;5031109;28;20061;-77
2022/03/25 05:45:40;;;;;;;602.72;93.38;;;1.10;99.90;;;;;;5033258;28;20445;-77
2022/03/25 05:48:07;;;;;;;460.17;67.97;;;1.10;99.90;;;;;;5031075;28;20077;-77
2022/03/25 05:50:33;;;;;;;437.98;66.28;;;1.00;99.90;;;;;;5031442;28;20124;-77
2022/03/25 05:52:58;;;;;;;457.55;67.07;;;1.00;99.90;;;;;;5031001;28;20128;-77
2022/03/25 05:55:24;;;;;;;184.55;49.30;;;1.00;99.90;;;;;;5033887;28;20444;-77
2022/03/25 05:57:50;;;;;;;442.92;80.05;;;1.00;99.90;;;;;;5030706;28;20041;-77
2022/03/25 06:00:16;;;;;;;354.88;65.03;;;1.10;99.90;;;;;;5030170;28;20099;-77
2022/03/25 06:02:43;;;;;;;262.38;53.97;;;1.10;99.90;;;;;;5031420;28;20120;-77
2022/03/25 06:05:09;;;;;;;296.02;52.70;;;1.10;99.90;;;;;;5034243;28;20071;-77
2022/03/25 06:07:39;;;;;;;559.17;83.72;;;1.40;99.90;;;;;;5031166;28;20049;-76
2022/03/25 06:10:09;;;;;;;494.55;86.32;;;1.30;99.90;;;;;;5031737;28;20049;-77
2022/03/25 06:12:36;;;;;;;389.88;62.20;;;1.20;99.90;;;;;;5031366;28;20121;-77
2022/03/25 06:15:02;;;;;;;304.35;59.13;;;1.20;99.90;;;;;;5032516;28;20116;-77
2022/03/25 06:17:28;;;;;;;651.40;111.30;;;1.20;99.90;;;;;;5022534;28;20264;-77
2022/03/25 06:19:54;;;;;;;207.65;44.25;;;1.20;99.90;;;;;;5015381;28;20041;-77
2022/03/25 06:22:20;;;;;;;242.73;52.95;;;1.30;99.90;;;;;;5032098;28;20045;-76
2022/03/25 06:24:45;;;;;;;208.35;44.88;;;1.30;99.90;;;;;;5033437;28;20037;-77
2022/03/25 06:27:11;;;;;;;344.55;58.05;;;1.30;99.90;;;;;;5034035;28;20128;-76
2022/03/25 06:29:38;;;;;;;204.65;45.00;;;1.40;99.90;;;;;;5032098;28;20525;-77
2022/03/25 06:32:05;;;;;;;154.50;40.60;;;1.50;99.90;;;;;;5032423;28;20159;-76
2022/03/25 06:34:31;;;;;;;153.40;42.95;;;1.50;99.90;;;;;;5030497;28;20411;-76
2022/03/25 06:36:57;;;;;;;158.23;48.22;;;1.50;99.90;;;;;;5029323;28;20041;-76
2022/03/25 06:39:23;;;;;;;211.48;49.97;;;1.60;99.90;;;;;;5031512;28;20038;-76
2022/03/25 06:41:48;;;;;;;96.43;42.45;;;1.60;99.90;;;;;;5030616;28;20041;-77
2022/03/25 06:44:14;;;;;;;74.95;40.88;;;1.90;99.90;;;;;;5029671;28;20116;-76
2022/03/25 06:46:40;;;;;;;72.35;37.72;;;1.80;99.90;;;;;;5041310;28;20033;-76
2022/03/25 06:49:06;;;;;;;68.95;37.28;;;1.90;99.90;;;;;;5012169;28;20120;-77
2022/03/25 06:51:32;;;;;;;66.63;33.42;;;1.90;99.90;;;;;;5023201;28;20491;-77
2022/03/25 06:53:58;;;;;;;57.55;34.22;;;2.00;99.90;;;;;;5019849;28;20532;-76
2022/03/25 06:56:24;;;;;;;64.75;35.33;;;2.00;99.90;;;;;;5024832;28;20045;-76
2022/03/25 06:58:50;;;;;;;60.78;34.40;;;2.10;99.90;;;;;;5031288;28;20384;-76
2022/03/25 07:01:17;;;;;;;65.80;37.40;;;2.10;99.90;;;;;;5037297;28;20052;-76
2022/03/25 07:03:43;;;;;;;65.68;36.28;;;2.20;99.90;;;;;;5029172;28;20049;-76
2022/03/25 07:06:09;;;;;;;58.45;35.70;;;2.30;99.90;;;;;;5035347;28;20552;-76
2022/03/25 07:08:35;;;;;;;66.78;36.92;;;2.40;99.90;;;;;;5034807;28;20045;-76
2022/03/25 07:11:01;;;;;;;62.55;35.15;;;2.40;99.90;;;;;;5033930;28;20034;-76
2022/03/25 07:13:28;;;;;;;65.78;37.42;;;2.50;99.90;;;;;;5032186;28;20048;-76
2022/03/25 07:15:54;;;;;;;67.72;36.38;;;2.60;99.90;;;;;;5060820;28;20044;-76
2022/03/25 07:18:20;;;;;;;67.30;38.17;;;2.80;99.90;;;;;;5025449;28;20129;-76
2022/03/25 07:20:46;;;;;;;64.50;35.22;;;2.70;99.90;;;;;;5035013;28;20613;-76
2022/03/25 07:23:11;;;;;;;69.20;38.08;;;2.90;99.90;;;;;;5030068;28;20038;-76
2022/03/25 07:25:37;;;;;;;69.20;38.13;;;3.00;99.90;;;;;;5035047;28;20508;-76
2022/03/25 07:28:03;;;;;;;75.32;39.20;;;3.10;99.90;;;;;;5034422;28;20522;-76
2022/03/25 07:30:29;;;;;;;81.53;41.90;;;3.30;99.90;;;;;;5033051;28;20171;-76
2022/03/25 07:32:55;;;;;;;78.95;40.75;;;3.50;99.90;;;;;;5036213;28;20037;-76
2022/03/25 07:35:21;;;;;;;77.68;42.10;;;3.60;99.90;;;;;;5030822;28;20054;-76
2022/03/25 07:37:47;;;;;;;75.88;42.33;;;3.90;99.90;;;;;;5039073;28;20499;-76
2022/03/25 07:40:14;;;;;;;76.03;41.33;;;4.40;99.90;;;;;;5026459;28;20075;-76
2022/03/25 07:42:41;;;;;;;71.63;39.13;;;5.10;99.90;;;;;;5040196;28;20507;-76
2022/03/25 07:45:10;;;;;;;63.55;38.13;;;5.70;99.90;;;;;;5017398;28;20353;-77
2022/03/25 07:47:49;;;;;;;60.17;36.88;;;6.50;99.90;;;;;;5040619;28;20037;-77
2022/03/25 07:50:18;;;;;;;62.15;36.75;;;7.30;99.90;;;;;;5029597;28;20044;-76
2022/03/25 07:52:44;;;;;;;63.45;38.38;;;8.10;99.90;;;;;;5031328;28;20033;-77
2022/03/25 07:55:12;;;;;;;65.63;39.20;;;8.70;99.90;;;;;;5029526;28;20037;-77
2022/03/25 07:57:39;;;;;;;63.90;36.33;;;9.20;99.90;;;;;;5032562;28;20069;-77
2022/03/25 08:00:12;;;;;;;56.05;36.15;;;9.80;99.90;;;;;;5012448;28;20422;-77
2022/03/25 08:02:43;;;;;;;52.88;35.50;;;10.10;99.90;;;;;;5034093;28;20040;-77
2022/03/25 08:05:10;;;;;;;52.60;35.80;;;10.40;99.90;;;;;;5011749;28;20266;-77
2022/03/25 08:07:55;;;;;;;52.38;32.95;;;10.70;99.90;;;;;;5034094;28;20474;-77
2022/03/25 08:10:23;;;;;;;51.47;34.03;;;11.10;99.90;;;;;;5029187;28;20037;-77
2022/03/25 08:12:50;;;;;;;52.15;34.03;;;11.40;99.90;;;;;;5036387;28;20037;-77
2022/03/25 08:15:16;;;;;;;52.28;34.58;;;11.50;99.90;;;;;;5030069;28;20045;-78
2022/03/25 08:17:58;;;;;;;53.00;35.30;;;11.80;99.90;;;;;;5016060;28;20051;-77
2022/03/25 08:20:41;;;;;;;54.92;35.58;;;12.10;99.90;;;;;;5027504;28;20502;-77
2022/03/25 08:23:12;;;;;;;53.90;36.60;;;12.10;99.90;;;;;;5030295;28;20530;-77
2022/03/25 08:28:25;;;;;;;48.80;35.22;;;12.60;99.90;;;;;;5030546;28;20392;-77
2022/03/25 08:30:51;;;;;;;53.60;35.88;;;12.90;99.90;;;;;;5030878;28;20060;-77
2022/03/25 08:33:18;;;;;;;53.58;35.50;;;13.00;99.90;;;;;;5030416;28;20048;-77
2022/03/25 08:35:44;;;;;;;46.58;34.67;;;13.20;99.90;;;;;;5030034;28;20137;-77
2022/03/25 08:38:11;;;;;;;53.75;34.85;;;13.50;99.90;;;;;;5036011;28;20124;-77
2022/03/25 08:40:38;;;;;;;52.70;35.97;;;13.60;99.90;;;;;;5032011;28;20033;-77
2022/03/25 08:43:04;;;;;;;53.17;35.35;;;13.60;99.90;;;;;;5039922;28;20063;-77
2022/03/25 08:45:31;;;;;;;50.15;34.92;;;14.10;99.90;;;;;;5029732;28;20037;-77
2022/03/25 08:47:58;;;;;;;53.28;35.05;;;14.20;98.20;;;;;;5030153;28;20038;-77
2022/03/25 08:50:24;;;;;;;51.88;34.72;;;14.50;98.90;;;;;;5009222;28;20045;-77
2022/03/25 08:52:51;;;;;;;48.10;33.20;;;14.80;98.60;;;;;;5031396;28;20036;-77
2022/03/25 08:55:19;;;;;;;52.42;33.00;;;14.80;97.70;;;;;;5032531;28;20434;-77
2022/03/25 08:57:47;;;;;;;50.38;34.17;;;15.00;97.20;;;;;;5031842;28;20046;-77
2022/03/25 09:00:15;;;;;;;47.63;32.42;;;15.30;96.60;;;;;;5029338;28;20029;-77
2022/03/25 09:02:43;;;;;;;44.42;31.60;;;15.60;95.60;;;;;;5030234;28;20502;-77
2022/03/25 09:05:10;;;;;;;45.85;31.52;;;15.80;95.10;;;;;;5031681;28;20065;-78
2022/03/25 09:07:37;;;;;;;47.95;32.05;;;16.00;93.80;;;;;;5036487;28;20549;-77
2022/03/25 09:10:16;;;;;;;41.67;29.65;;;16.20;93.30;;;;;;5028361;28;20083;-77
2022/03/25 09:12:43;;;;;;;47.20;32.15;;;16.50;91.20;;;;;;5028680;28;20033;-78
2022/03/25 09:15:11;;;;;;;46.85;32.38;;;16.60;91.20;;;;;;5029017;28;20544;-76
2022/03/25 09:17:36;;;;;;;46.60;32.40;;;16.80;91.20;;;;;;5033983;28;20037;-77
2022/03/25 09:20:04;;;;;;;44.72;31.63;;;16.70;90.50;;;;;;5039850;28;20041;-77
2022/03/25 09:22:31;;;;;;;47.60;32.75;;;17.00;88.50;;;;;;5040768;28;20029;-77
2022/03/25 09:24:57;;;;;;;48.67;31.67;;;17.30;89.20;;;;;;5029356;28;20080;-77
2022/03/25 09:27:23;;;;;;;46.15;32.88;;;17.50;89.00;;;;;;5042028;28;20482;-77
2022/03/25 09:29:48;;;;;;;42.92;33.05;;;17.60;87.90;;;;;;5033173;28;20357;-77
2022/03/25 09:32:14;;;;;;;46.05;32.25;;;17.90;86.80;;;;;;5030983;28;20042;-77
2022/03/25 09:37:25;;;;;;;45.13;32.63;;;17.90;85.80;;;;;;5042122;28;20107;-77
2022/03/25 09:39:51;;;;;;;45.88;32.00;;;18.30;85.00;;;;;;5062441;28;20049;-77
2022/03/25 09:42:19;;;;;;;46.75;32.17;;;18.50;84.80;;;;;;5038798;28;20055;-77
2022/03/25 09:44:46;;;;;;;46.88;34.40;;;18.90;83.70;;;;;;5040108;28;20048;-77
2022/03/25 09:47:14;;;;;;;47.10;33.72;;;18.80;81.50;;;;;;5033061;28;20081;-77
2022/03/25 09:49:40;;;;;;;46.67;32.13;;;19.30;81.40;;;;;;5038342;28;20110;-77
2022/03/25 09:52:07;;;;;;;46.15;33.13;;;19.50;79.60;;;;;;5036861;28;20042;-77
2022/03/25 09:54:33;;;;;;;43.92;31.92;;;19.50;79.50;;;;;;5045626;28;20450;-77
2022/03/25 09:56:59;;;;;;;44.10;33.22;;;19.40;79.40;;;;;;5041382;28;20041;-77
2022/03/25 09:59:25;;;;;;;49.25;31.95;;;19.10;77.40;;;;;;5048017;28;20051;-78
2022/03/25 10:01:50;;;;;;;46.92;32.28;;;19.10;78.40;;;;;;5030982;28;20112;-77
2022/03/25 10:04:39;;;;;;;48.95;32.05;;;19.10;78.60;;;;;;5045227;28;20120;-77
2022/03/25 10:07:25;;;;;;;45.20;31.80;;;19.20;75.60;;;;;;5040825;28;20454;-78
2022/03/25 10:10:10;;;;;;;45.38;31.42;;;19.30;76.00;;;;;;5044530;28;20046;-77
2022/03/25 10:12:38;;;;;;;48.03;31.02;;;19.70;73.10;;;;;;5040811;28;20463;-78
2022/03/25 10:15:21;;;;;;;44.00;29.45;;;19.70;74.50;;;;;;5048236;28;20039;-78
2022/03/25 10:18:08;;;;;;;42.97;29.85;;;20.00;73.30;;;;;;5038123;28;20040;-78
2022/03/25 10:20:37;;;;;;;41.10;28.70;;;20.20;72.80;;;;;;5024820;28;20044;-78
2022/03/25 10:23:15;;;;;;;40.15;29.52;;;20.40;71.40;;;;;;5038540;28;20046;-78
2022/03/25 10:26:03;;;;;;;42.28;29.38;;;20.30;69.90;;;;;;5044392;28;20339;-78
2022/03/25 10:28:36;;;;;;;41.28;29.65;;;20.40;70.00;;;;;;5032574;28;20077;-78
2022/03/25 10:31:06;;;;;;;45.35;27.58;;;20.60;68.90;;;;;;5028755;28;20053;-78
2022/03/25 10:33:34;;;;;;;39.92;28.38;;;21.00;68.80;;;;;;5027543;28;20104;-78
2022/03/25 10:36:11;;;;;;;44.60;29.45;;;21.00;67.80;;;;;;5061677;28;20049;-78
2022/03/25 10:39:11;;;;;;;38.63;26.88;;;20.90;66.40;;;;;;5028573;28;20033;-78
2022/03/25 10:41:41;;;;;;;40.53;28.58;;;20.50;67.20;;;;;;5026917;28;20060;-78
2022/03/25 10:44:10;;;;;;;38.85;27.35;;;20.70;67.50;;;;;;5029639;28;20069;-78
2022/03/25 10:46:49;;;;;;;43.85;27.95;;;20.70;67.80;;;;;;5030436;28;20048;-78
2022/03/25 10:49:17;;;;;;;39.70;27.42;;;20.50;66.70;;;;;;5038860;28;20036;-78
2022/03/25 10:51:55;;;;;;;43.40;26.90;;;20.60;66.30;;;;;;5038971;28;20052;-78
2022/03/25 10:54:26;;;;;;;42.92;27.23;;;20.60;65.10;;;;;;5034958;28;20482;-78
2022/03/25 10:56:54;;;;;;;36.58;24.92;;;20.70;65.30;;;;;;5036809;28;20144;-78
2022/03/25 10:59:29;;;;;;;39.25;27.27;;;20.80;65.60;;;;;;5041710;28;20051;-76
2022/03/25 11:01:57;;;;;;;43.75;28.48;;;20.50;65.10;;;;;;5022051;28;20049;-76
2022/03/25 11:04:24;;;;;;;38.80;26.00;;;20.40;65.30;;;;;;5036194;28;20041;-76
2022/03/25 11:06:50;;;;;;;38.85;26.67;;;20.90;65.00;;;;;;5035302;28;20088;-76
2022/03/25 11:09:17;;;;;;;47.15;27.48;;;21.30;64.30;;;;;;5035946;28;20506;-76
2022/03/25 11:11:45;;;;;;;39.47;25.83;;;21.40;63.60;;;;;;5031716;28;20036;-76
2022/03/25 11:14:12;;;;;;;39.80;26.95;;;21.50;62.80;;;;;;5037011;28;20037;-76
2022/03/25 11:16:48;;;;;;;40.35;25.98;;;21.70;62.50;;;;;;5033318;28;20044;-76
2022/03/25 11:19:15;;;;;;;37.25;25.33;;;21.90;61.80;;;;;;5034199;28;20029;-77
2022/03/25 11:21:43;;;;;;;37.47;25.90;;;21.40;61.80;;;;;;5036609;28;20040;-77
2022/03/25 11:24:47;;;;;;;47.20;26.25;;;21.60;62.30;;;;;;5032012;28;20502;-77
2022/03/25 11:27:21;;;;;;;40.80;25.70;;;21.40;61.60;;;;;;5031116;28;20057;-80
2022/03/25 11:29:51;;;;;;;41.55;27.23;;;21.20;62.00;;;;;;5012282;28;20044;-80
2022/03/25 11:32:17;;;;;;;48.83;28.67;;;21.00;62.60;;;;;;5029321;28;20172;-80
2022/03/25 11:34:53;;;;;;;44.85;26.15;;;21.00;63.30;;;;;;5029359;28;20049;-80
2022/03/25 11:37:27;;;;;;;44.70;26.83;;;20.70;62.80;;;;;;5030389;28;20522;-79
2022/03/25 11:40:11;;;;;;;39.30;26.35;;;20.40;61.40;;;;;;5030351;28;20037;-80
2022/03/25 11:42:40;;;;;;;42.80;26.15;;;20.30;62.40;;;;;;5030320;28;20045;-80
2022/03/25 11:45:21;;;;;;;37.45;26.08;;;20.10;63.40;;;;;;5029621;28;20037;-79
2022/03/25 11:48:22;;;;;;;41.35;24.35;;;20.10;62.00;;;;;;5029542;28;20045;-79
2022/03/25 11:50:47;;;;;;;40.65;24.33;;;20.00;63.20;;;;;;5061348;28;20042;-79
2022/03/25 11:53:13;;;;;;;34.30;23.35;;;19.80;63.20;;;;;;5027241;28;20135;-80
2022/03/25 11:56:09;;;;;;;45.33;25.08;;;19.80;63.40;;;;;;5011175;28;20052;-80
2022/03/25 11:58:54;;;;;;;40.88;23.63;;;19.90;62.80;;;;;;5028494;28;20135;-79
2022/03/25 12:01:20;;;;;;;33.55;22.50;;;19.90;62.40;;;;;;5030391;28;20041;-80
2022/03/25 12:03:50;;;;;;;38.95;23.92;;;19.90;63.10;;;;;;5030958;28;20044;-80
2022/03/25 12:06:21;;;;;;;39.85;25.27;;;20.00;62.60;;;;;;5031243;28;20399;-80
2022/03/25 12:08:57;;;;;;;34.83;23.52;;;20.00;62.50;;;;;;5034336;28;20045;-79
2022/03/25 12:11:51;;;;;;;36.25;23.90;;;20.00;61.90;;;;;;5028965;28;20044;-79
2022/03/25 12:14:31;;;;;;;34.17;22.88;;;20.20;61.40;;;;;;5028128;28;20113;-79
2022/03/25 12:17:02;;;;;;;42.70;24.45;;;20.30;61.60;;;;;;5027175;28;20550;-79
2022/03/25 12:19:28;;;;;;;35.75;22.88;;;20.20;61.30;;;;;;5028628;28;20068;-80
2022/03/25 12:22:25;;;;;;;35.03;21.55;;;20.30;61.90;;;;;;5029206;28;20130;-80
2022/03/25 12:25:15;;;;;;;39.35;23.17;;;20.50;62.50;;;;;;5016777;28;20065;-81
2022/03/25 12:27:43;;;;;;;36.20;22.45;;;20.50;61.10;;;;;;5041422;28;20121;-79
2022/03/25 12:30:09;;;;;;;39.50;22.33;;;20.60;61.70;;;;;;5027891;28;20053;-78
2022/03/25 12:32:36;;;;;;;38.78;21.63;;;20.50;61.10;;;;;;5043217;28;20041;-80
2022/03/25 12:35:07;;;;;;;32.60;22.55;;;20.50;60.30;;;;;;5029295;28;20527;-78
2022/03/25 12:37:42;;;;;;;37.17;21.90;;;20.30;59.90;;;;;;5030184;28;20083;-80
2022/03/25 12:40:09;;;;;;;38.30;21.17;;;20.30;60.20;;;;;;5031214;28;20072;-79